Time;durP1;ratioP1;P1;durP2;ratioP2;P2;SDS_P1;SDS_P2;PMS_P1;PMS_P2;Temp;Humidity;BMP_temperature;BMP_pressure;BME280_temperature;BME280_humidity;BME280_pressure;Samples;Min_cycle;Max_cycle;Signal;HPM_P1;HPM_P2
2021/09/01 00:00:15;;;;;;;22.60;6.40;;;16.50;99.90;;;;;;4992558;28;25059;-74
2021/09/01 00:02:40;;;;;;;20.25;6.38;;;16.40;99.90;;;;;;4987918;28;25061;-74
2021/09/01 00:05:07;;;;;;;18.98;5.75;;;16.40;99.90;;;;;;4986894;28;25066;-74
2021/09/01 00:07:32;;;;;;;17.35;6.72;;;16.50;99.90;;;;;;4990869;28;25065;-74
2021/09/01 00:09:58;;;;;;;15.98;5.28;;;16.50;99.90;;;;;;4975398;28;25151;-73
2021/09/01 00:12:24;;;;;;;18.58;5.75;;;16.40;99.90;;;;;;4991660;28;25059;-74
2021/09/01 00:14:49;;;;;;;20.10;5.47;;;16.50;99.90;;;;;;4996812;28;25137;-73
2021/09/01 00:17:15;;;;;;;26.02;6.38;;;16.50;99.90;;;;;;4995269;28;25061;-75
2021/09/01 00:19:40;;;;;;;19.23;5.60;;;16.50;99.90;;;;;;4991347;28;25082;-72
2021/09/01 00:22:06;;;;;;;23.17;5.82;;;16.60;99.90;;;;;;4987925;28;25140;-75
2021/09/01 00:24:32;;;;;;;17.48;6.07;;;16.60;99.90;;;;;;4987145;28;25073;-75
2021/09/01 00:26:57;;;;;;;15.93;6.00;;;16.50;99.90;;;;;;4990983;28;25073;-73
2021/09/01 00:29:23;;;;;;;19.27;6.57;;;16.40;99.90;;;;;;4984676;28;25153;-74
2021/09/01 00:31:48;;;;;;;18.30;6.00;;;16.40;99.90;;;;;;4973752;28;25054;-76
2021/09/01 00:34:15;;;;;;;17.50;5.90;;;16.30;99.90;;;;;;4995712;28;25059;-74
2021/09/01 00:36:41;;;;;;;17.05;5.68;;;16.30;99.90;;;;;;4993210;28;25079;-74
2021/09/01 00:39:08;;;;;;;19.48;7.18;;;16.40;99.90;;;;;;4995301;28;25101;-75
2021/09/01 00:41:33;;;;;;;18.85;6.10;;;16.40;99.90;;;;;;4994091;28;25067;-75
2021/09/01 00:44:27;;;;;;;25.08;6.32;;;16.30;99.90;;;;;;4993619;28;25099;-75
2021/09/01 00:46:53;;;;;;;19.77;6.53;;;16.30;99.90;;;;;;4993521;28;25115;-72
2021/09/01 00:49:19;;;;;;;21.63;6.88;;;16.30;99.90;;;;;;4993367;28;25077;-73
2021/09/01 00:51:46;;;;;;;18.88;6.22;;;16.30;99.90;;;;;;4994419;28;25102;-75
2021/09/01 00:54:16;;;;;;;16.25;6.30;;;16.30;99.90;;;;;;4994190;28;25130;-74
2021/09/01 00:56:53;;;;;;;25.50;6.38;;;16.40;99.90;;;;;;4991004;28;25141;-72
2021/09/01 00:59:20;;;;;;;18.10;5.43;;;16.40;99.90;;;;;;4992213;28;25051;-74
2021/09/01 01:01:49;;;;;;;15.13;5.45;;;16.30;99.90;;;;;;4993178;28;25055;-75
2021/09/01 01:04:15;;;;;;;18.85;6.07;;;16.30;99.90;;;;;;4992262;28;25083;-73
2021/09/01 01:06:41;;;;;;;20.77;6.55;;;16.40;99.90;;;;;;4991793;28;25138;-74
2021/09/01 01:09:08;;;;;;;26.95;7.00;;;16.40;99.90;;;;;;4993488;28;25074;-75
2021/09/01 01:11:37;;;;;;;25.15;6.53;;;16.30;99.90;;;;;;5005213;28;25046;-73
2021/09/01 01:14:04;;;;;;;24.45;6.57;;;16.40;99.90;;;;;;5013237;28;25087;-73
2021/09/01 01:16:30;;;;;;;27.33;7.32;;;16.30;99.90;;;;;;5008603;28;25063;-73
2021/09/01 01:18:59;;;;;;;19.35;6.10;;;16.40;99.90;;;;;;4995911;28;25138;-73
2021/09/01 01:21:29;;;;;;;21.67;6.25;;;16.50;99.90;;;;;;4992118;28;25061;-74
2021/09/01 01:23:56;;;;;;;24.75;6.90;;;16.50;99.90;;;;;;4994325;28;25062;-73
2021/09/01 01:26:24;;;;;;;19.92;6.50;;;16.50;99.90;;;;;;4999021;28;25065;-74
2021/09/01 01:29:04;;;;;;;15.52;5.57;;;16.40;99.90;;;;;;4999219;28;25056;-74
2021/09/01 01:31:30;;;;;;;20.42;6.03;;;16.30;99.90;;;;;;5002023;28;25154;-74
2021/09/01 01:33:57;;;;;;;21.35;6.00;;;16.20;99.90;;;;;;5001278;28;25059;-73
2021/09/01 01:36:25;;;;;;;17.20;5.43;;;16.20;99.90;;;;;;5001602;28;25086;-72
2021/09/01 01:38:51;;;;;;;14.93;5.47;;;16.20;99.90;;;;;;4996618;28;25072;-72
2021/09/01 01:41:16;;;;;;;22.60;6.05;;;16.30;99.90;;;;;;4986443;28;25068;-74
2021/09/01 01:43:47;;;;;;;21.50;6.22;;;16.40;99.90;;;;;;4999851;28;25061;-74
2021/09/01 01:46:12;;;;;;;24.83;6.10;;;16.40;99.90;;;;;;4997852;28;25074;-73
2021/09/01 01:48:38;;;;;;;29.60;7.38;;;16.30;99.90;;;;;;4994062;28;25080;-74
2021/09/01 01:51:04;;;;;;;22.70;6.93;;;16.20;99.90;;;;;;4991603;28;25101;-74
2021/09/01 01:53:30;;;;;;;22.25;5.78;;;16.20;99.90;;;;;;4991553;28;25077;-73
2021/09/01 01:55:56;;;;;;;16.80;7.05;;;16.30;99.90;;;;;;4996543;28;25078;-74
2021/09/01 01:58:21;;;;;;;24.55;7.10;;;16.30;99.90;;;;;;4994128;28;25061;-73
2021/09/01 02:00:49;;;;;;;18.73;5.20;;;16.20;99.90;;;;;;4997026;28;25084;-77
2021/09/01 02:03:16;;;;;;;22.30;6.88;;;16.30;99.90;;;;;;4993980;28;25063;-73
2021/09/01 02:05:41;;;;;;;26.27;6.15;;;16.30;99.90;;;;;;4993129;28;24760;-73
2021/09/01 02:08:07;;;;;;;22.23;6.72;;;16.30;99.90;;;;;;4987342;28;25141;-74
2021/09/01 02:10:32;;;;;;;20.83;6.15;;;16.30;99.90;;;;;;4991355;28;25061;-73
2021/09/01 02:12:58;;;;;;;15.80;5.90;;;16.30;99.90;;;;;;4989297;28;25080;-73
2021/09/01 02:15:24;;;;;;;18.83;6.13;;;16.30;99.90;;;;;;4989729;28;25167;-75
2021/09/01 02:17:50;;;;;;;22.58;6.63;;;16.30;99.90;;;;;;4989238;28;25058;-72
2021/09/01 02:20:16;;;;;;;21.05;5.88;;;16.30;99.90;;;;;;4991732;28;25058;-72
2021/09/01 02:22:43;;;;;;;20.85;6.47;;;16.40;99.90;;;;;;4972706;28;25111;-74
2021/09/01 02:25:10;;;;;;;20.77;5.35;;;16.40;99.90;;;;;;4990362;28;25070;-73
2021/09/01 02:27:35;;;;;;;21.08;6.20;;;16.60;99.90;;;;;;4988564;28;25062;-73
2021/09/01 02:30:01;;;;;;;18.13;5.65;;;16.50;99.90;;;;;;4992087;28;25170;-75
2021/09/01 02:32:27;;;;;;;18.65;5.95;;;16.40;99.90;;;;;;4991698;28;25067;-74
2021/09/01 02:34:53;;;;;;;19.55;5.32;;;16.40;99.90;;;;;;4995750;28;25096;-72
2021/09/01 02:37:19;;;;;;;20.55;6.72;;;16.30;99.90;;;;;;4993609;28;25058;-74
2021/09/01 02:39:44;;;;;;;19.40;5.90;;;16.20;99.90;;;;;;4991239;28;25099;-73
2021/09/01 02:42:10;;;;;;;20.00;5.53;;;16.20;99.90;;;;;;4992018;28;25089;-74
2021/09/01 02:44:37;;;;;;;25.23;6.00;;;16.20;99.90;;;;;;4993057;28;25122;-73
2021/09/01 02:47:04;;;;;;;21.90;5.60;;;16.20;99.90;;;;;;4995569;28;25054;-72
2021/09/01 02:49:30;;;;;;;20.15;6.28;;;16.20;99.90;;;;;;4994553;28;25053;-72
2021/09/01 02:51:55;;;;;;;29.38;7.32;;;16.20;99.90;;;;;;4993438;28;25075;-74
2021/09/01 02:54:21;;;;;;;22.23;6.15;;;16.20;99.90;;;;;;4994880;28;25074;-75
2021/09/01 02:56:47;;;;;;;22.73;6.85;;;16.20;99.90;;;;;;4994586;28;25073;-74
2021/09/01 02:59:12;;;;;;;24.02;7.15;;;16.20;99.90;;;;;;4995236;28;25111;-74
2021/09/01 03:01:38;;;;;;;16.95;6.47;;;16.20;99.90;;;;;;4996136;28;25069;-73
2021/09/01 03:04:04;;;;;;;22.48;6.78;;;16.20;99.90;;;;;;4994891;28;25107;-74
2021/09/01 03:06:30;;;;;;;23.33;7.53;;;16.20;99.90;;;;;;4991545;28;25094;-73
2021/09/01 03:08:56;;;;;;;27.98;7.13;;;16.10;99.90;;;;;;4990447;28;25164;-73
2021/09/01 03:11:21;;;;;;;25.23;7.47;;;16.10;99.90;;;;;;5001868;28;25060;-72
2021/09/01 03:13:47;;;;;;;20.52;6.57;;;16.10;99.90;;;;;;5006656;28;25095;-72
2021/09/01 03:16:13;;;;;;;21.70;6.68;;;16.10;99.90;;;;;;4996699;28;25066;-73
2021/09/01 03:18:38;;;;;;;16.75;6.57;;;16.20;99.90;;;;;;4983057;28;25090;-74
2021/09/01 03:21:04;;;;;;;16.60;6.43;;;16.10;99.90;;;;;;4993057;28;25052;-73
2021/09/01 03:23:30;;;;;;;27.52;7.38;;;16.10;99.90;;;;;;4995407;28;25085;-73
2021/09/01 03:25:55;;;;;;;19.85;6.07;;;16.20;99.90;;;;;;4979352;28;25144;-73
2021/09/01 03:28:21;;;;;;;21.13;6.72;;;16.20;99.90;;;;;;4986102;28;25064;-73
2021/09/01 03:30:46;;;;;;;22.85;6.82;;;16.30;99.90;;;;;;4987438;28;25072;-74
2021/09/01 03:33:12;;;;;;;18.42;6.65;;;16.30;99.90;;;;;;4995863;28;25105;-73
2021/09/01 03:35:38;;;;;;;21.05;5.70;;;16.40;99.90;;;;;;4995560;28;25075;-75
2021/09/01 03:38:03;;;;;;;21.63;6.40;;;16.30;99.90;;;;;;4990409;28;25069;-72
2021/09/01 03:40:30;;;;;;;17.38;6.80;;;16.40;99.90;;;;;;4982954;28;25071;-72
2021/09/01 03:42:56;;;;;;;29.15;8.68;;;16.30;99.90;;;;;;4991649;28;25065;-72
2021/09/01 03:45:21;;;;;;;20.35;6.20;;;16.30;99.90;;;;;;4994539;28;25065;-73
2021/09/01 03:47:48;;;;;;;20.48;6.68;;;16.30;99.90;;;;;;4991198;28;25056;-73
2021/09/01 03:50:14;;;;;;;17.70;6.70;;;16.30;99.90;;;;;;4997028;28;25126;-75
2021/09/01 03:52:40;;;;;;;16.58;6.00;;;16.40;99.90;;;;;;4986079;28;25133;-72
2021/09/01 03:55:08;;;;;;;19.02;6.45;;;16.30;99.90;;;;;;4993065;28;25068;-73
2021/09/01 03:57:37;;;;;;;22.48;6.68;;;16.20;99.90;;;;;;4992836;28;25056;-72
2021/09/01 04:00:06;;;;;;;19.08;6.38;;;16.30;99.90;;;;;;4995050;28;25063;-75
2021/09/01 04:02:32;;;;;;;20.15;6.57;;;16.30;99.90;;;;;;4994195;28;25154;-74
2021/09/01 04:04:59;;;;;;;21.52;7.15;;;16.20;99.90;;;;;;4989929;28;25066;-73
2021/09/01 04:07:24;;;;;;;18.98;5.45;;;16.20;99.90;;;;;;4993240;28;25185;-73
2021/09/01 04:09:50;;;;;;;20.88;6.65;;;16.30;99.90;;;;;;4994081;28;25109;-72
2021/09/01 04:12:17;;;;;;;13.93;5.63;;;16.40;99.90;;;;;;4998731;28;25124;-72
2021/09/01 04:14:42;;;;;;;22.80;7.60;;;16.50;99.90;;;;;;5014886;28;25065;-72
2021/09/01 04:17:08;;;;;;;17.75;5.55;;;16.50;99.90;;;;;;5016352;28;25058;-74
2021/09/01 04:19:34;;;;;;;17.58;6.65;;;16.50;99.90;;;;;;5006362;28;25054;-71
2021/09/01 04:22:00;;;;;;;16.92;5.95;;;16.40;99.90;;;;;;4997722;28;25065;-73
2021/09/01 04:24:26;;;;;;;19.73;7.00;;;16.40;99.90;;;;;;4990332;28;25105;-73
2021/09/01 04:26:51;;;;;;;24.45;6.65;;;16.60;99.90;;;;;;4994437;28;25061;-73
2021/09/01 04:29:17;;;;;;;17.83;6.30;;;16.70;99.90;;;;;;4991495;28;25156;-72
2021/09/01 04:31:43;;;;;;;14.50;6.07;;;16.80;99.90;;;;;;4991327;28;25073;-72
2021/09/01 04:34:09;;;;;;;13.85;5.53;;;16.80;99.90;;;;;;4992357;28;25086;-72
2021/09/01 04:36:35;;;;;;;16.67;6.25;;;16.70;99.90;;;;;;4994641;28;25105;-72
2021/09/01 04:39:00;;;;;;;16.73;5.95;;;16.70;99.90;;;;;;4994694;28;25070;-73
2021/09/01 04:41:26;;;;;;;19.73;6.18;;;16.60;99.90;;;;;;4994429;28;25075;-73
2021/09/01 04:43:53;;;;;;;16.77;6.50;;;16.50;99.90;;;;;;4998997;28;25048;-74
2021/09/01 04:46:18;;;;;;;18.10;6.18;;;16.50;99.90;;;;;;4992925;28;25101;-73
2021/09/01 04:48:45;;;;;;;16.48;5.78;;;16.40;99.90;;;;;;4994992;28;25116;-73
2021/09/01 04:51:10;;;;;;;17.10;6.68;;;16.50;99.90;;;;;;4992171;28;25058;-72
2021/09/01 04:53:36;;;;;;;15.80;5.65;;;16.40;99.90;;;;;;4974757;28;25063;-71
2021/09/01 04:56:03;;;;;;;11.95;5.53;;;16.30;99.90;;;;;;4992441;28;25136;-73
2021/09/01 04:58:28;;;;;;;19.15;5.95;;;16.30;99.90;;;;;;4991939;28;25067;-71
2021/09/01 05:00:55;;;;;;;21.17;6.18;;;16.20;99.90;;;;;;4991490;28;25079;-72
2021/09/01 05:03:21;;;;;;;18.95;6.75;;;16.20;99.90;;;;;;4990463;28;25150;-71
2021/09/01 05:05:46;;;;;;;14.57;5.95;;;16.10;99.90;;;;;;4988298;28;25064;-73
2021/09/01 05:08:12;;;;;;;18.60;7.13;;;16.10;99.90;;;;;;4989359;28;25168;-74
2021/09/01 05:10:38;;;;;;;16.08;7.07;;;16.10;99.90;;;;;;4988888;28;25077;-74
2021/09/01 05:13:03;;;;;;;27.15;7.82;;;16.10;99.90;;;;;;4989857;28;25079;-73
2021/09/01 05:15:29;;;;;;;18.55;6.55;;;16.10;99.90;;;;;;4992395;28;25119;-72
2021/09/01 05:17:55;;;;;;;20.23;6.45;;;16.10;99.90;;;;;;4986686;28;25074;-72
2021/09/01 05:20:20;;;;;;;19.27;6.45;;;16.10;99.90;;;;;;4988980;28;25051;-72
2021/09/01 05:22:48;;;;;;;21.90;6.47;;;16.10;99.90;;;;;;4990113;28;25161;-72
2021/09/01 05:25:17;;;;;;;15.77;6.63;;;16.10;99.90;;;;;;4991377;28;25110;-72
2021/09/01 05:27:44;;;;;;;18.13;6.13;;;16.20;99.90;;;;;;4978764;28;25106;-70
2021/09/01 05:30:18;;;;;;;16.08;5.60;;;16.10;99.90;;;;;;5063493;28;25167;-64
2021/09/01 05:32:47;;;;;;;19.58;6.97;;;16.10;99.90;;;;;;5060381;28;25090;-63
2021/09/01 05:35:13;;;;;;;20.23;6.18;;;16.20;99.90;;;;;;5058304;28;25062;-65
2021/09/01 05:37:39;;;;;;;23.42;6.78;;;16.30;99.90;;;;;;5045894;28;25134;-65
2021/09/01 05:40:06;;;;;;;17.98;6.25;;;16.40;99.90;;;;;;5050918;28;25060;-64
2021/09/01 05:42:32;;;;;;;12.27;4.82;;;16.50;99.90;;;;;;5043463;28;25148;-64
2021/09/01 05:45:00;;;;;;;14.98;5.18;;;16.50;99.90;;;;;;5056130;28;25084;-64
2021/09/01 05:47:26;;;;;;;20.55;5.65;;;16.40;99.90;;;;;;5054507;28;25072;-64
2021/09/01 05:49:54;;;;;;;13.35;4.82;;;16.40;99.90;;;;;;5051861;28;25056;-65
2021/09/01 05:52:21;;;;;;;16.90;5.50;;;16.40;99.90;;;;;;5056655;28;25125;-63
2021/09/01 05:54:52;;;;;;;15.75;4.43;;;16.30;99.90;;;;;;5050470;28;25074;-66
2021/09/01 05:57:32;;;;;;;14.68;4.47;;;16.30;99.90;;;;;;5043281;28;25077;-64
2021/09/01 06:00:12;;;;;;;15.57;5.88;;;16.30;99.90;;;;;;5043137;28;25068;-64
2021/09/01 06:02:46;;;;;;;18.92;5.43;;;16.30;99.90;;;;;;5040200;28;25142;-64
2021/09/01 06:05:13;;;;;;;15.23;5.20;;;16.40;99.90;;;;;;5043225;28;25138;-65
2021/09/01 06:07:49;;;;;;;19.73;5.45;;;16.30;99.90;;;;;;5044046;28;25075;-64
2021/09/01 06:10:17;;;;;;;16.17;5.28;;;16.30;99.90;;;;;;5057258;28;25105;-64
2021/09/01 06:12:46;;;;;;;16.42;5.13;;;16.50;99.90;;;;;;5053825;28;25108;-64
2021/09/01 06:15:11;;;;;;;15.02;4.82;;;16.60;99.90;;;;;;5050744;28;25159;-63
2021/09/01 06:17:37;;;;;;;12.77;4.97;;;16.50;99.90;;;;;;5048573;28;25089;-64
2021/09/01 06:20:03;;;;;;;19.77;5.70;;;16.50;99.90;;;;;;5045326;28;25073;-64
2021/09/01 06:22:28;;;;;;;21.73;5.60;;;16.50;99.90;;;;;;5048272;28;25088;-63
2021/09/01 06:24:54;;;;;;;13.38;5.32;;;16.50;99.90;;;;;;5048157;28;25142;-65
2021/09/01 06:27:19;;;;;;;13.45;5.40;;;16.50;99.90;;;;;;5049834;28;25085;-65
2021/09/01 06:29:45;;;;;;;15.98;6.00;;;16.50;99.90;;;;;;5046354;28;25155;-64
2021/09/01 06:32:10;;;;;;;14.38;5.47;;;16.40;99.90;;;;;;5046405;28;25113;-65
2021/09/01 06:34:36;;;;;;;15.45;5.05;;;16.30;99.90;;;;;;5041916;28;25078;-65
2021/09/01 06:37:02;;;;;;;19.42;5.75;;;16.30;99.90;;;;;;5040788;28;25089;-65
2021/09/01 06:39:27;;;;;;;11.80;4.22;;;16.40;99.90;;;;;;5036857;28;25142;-65
2021/09/01 06:41:53;;;;;;;11.23;4.65;;;16.50;99.90;;;;;;5031619;28;25100;-63
2021/09/01 06:44:18;;;;;;;16.15;5.55;;;16.50;99.90;;;;;;5014151;28;25074;-63
2021/09/01 06:46:44;;;;;;;13.98;4.97;;;16.40;99.90;;;;;;5024403;28;25063;-63
2021/09/01 06:49:09;;;;;;;11.55;4.75;;;16.50;99.90;;;;;;5021817;28;25158;-64
2021/09/01 06:51:35;;;;;;;17.27;5.38;;;16.60;99.90;;;;;;5027868;28;25074;-65
2021/09/01 06:54:00;;;;;;;17.42;5.28;;;16.60;99.90;;;;;;5031044;28;25152;-65
2021/09/01 06:56:26;;;;;;;15.07;5.68;;;16.60;99.90;;;;;;5035853;28;25154;-64
2021/09/01 06:58:51;;;;;;;15.52;4.90;;;16.60;99.90;;;;;;5034548;28;25068;-64
2021/09/01 07:01:17;;;;;;;12.07;4.60;;;16.40;99.90;;;;;;5036552;28;25068;-64
2021/09/01 07:03:43;;;;;;;13.00;4.43;;;16.40;99.90;;;;;;5029814;28;25062;-65
2021/09/01 07:06:08;;;;;;;11.48;4.65;;;16.40;99.90;;;;;;5029560;28;25133;-64
2021/09/01 07:08:34;;;;;;;11.82;4.40;;;16.40;99.90;;;;;;5029027;28;25068;-63
2021/09/01 07:10:59;;;;;;;13.75;4.63;;;16.50;99.90;;;;;;5031898;28;25076;-65
2021/09/01 07:13:25;;;;;;;10.45;4.15;;;16.50;99.90;;;;;;5030493;28;25078;-64
2021/09/01 07:15:51;;;;;;;11.50;5.03;;;16.60;99.90;;;;;;5022737;28;25163;-63
2021/09/01 07:18:16;;;;;;;12.38;4.75;;;16.50;99.90;;;;;;5029803;28;25106;-63
2021/09/01 07:20:43;;;;;;;12.60;4.93;;;16.50;99.90;;;;;;5024395;28;25065;-63
2021/09/01 07:23:09;;;;;;;12.45;4.63;;;16.60;99.90;;;;;;5027230;28;25088;-64
2021/09/01 07:25:35;;;;;;;8.25;3.92;;;16.70;99.90;;;;;;5031128;28;25102;-64
2021/09/01 07:28:02;;;;;;;13.30;4.35;;;16.80;99.90;;;;;;5030994;28;25142;-64
2021/09/01 07:30:28;;;;;;;11.90;4.15;;;16.90;99.90;;;;;;5028721;28;25048;-64
2021/09/01 07:32:53;;;;;;;11.80;4.15;;;17.00;99.90;;;;;;5035102;28;25141;-63
2021/09/01 07:35:20;;;;;;;12.75;4.32;;;17.20;99.90;;;;;;5038932;28;25075;-64
2021/09/01 07:37:47;;;;;;;14.05;3.85;;;17.30;99.90;;;;;;5038813;28;25073;-63
2021/09/01 07:40:16;;;;;;;9.35;3.88;;;17.40;99.90;;;;;;5041948;28;25060;-63
2021/09/01 07:42:43;;;;;;;15.65;3.58;;;17.40;99.90;;;;;;5036462;28;25068;-63
2021/09/01 07:45:10;;;;;;;10.07;4.28;;;17.10;99.90;;;;;;5040454;28;25058;-64
2021/09/01 07:47:36;;;;;;;8.75;3.17;;;17.00;99.90;;;;;;5034122;28;25083;-63
2021/09/01 07:50:03;;;;;;;13.32;3.80;;;17.00;99.90;;;;;;5028056;28;25066;-63
2021/09/01 07:52:28;;;;;;;16.50;4.22;;;17.10;99.90;;;;;;5039212;28;25110;-64
2021/09/01 07:54:54;;;;;;;9.00;3.28;;;17.20;99.90;;;;;;5039914;28;25066;-65
2021/09/01 07:57:19;;;;;;;7.03;3.50;;;17.30;99.90;;;;;;5029849;28;25059;-65
2021/09/01 07:59:45;;;;;;;7.28;3.40;;;17.40;99.90;;;;;;5041544;28;25134;-64
2021/09/01 08:02:10;;;;;;;12.43;4.38;;;17.40;99.90;;;;;;5038969;28;25132;-64
2021/09/01 08:04:36;;;;;;;14.38;3.75;;;17.40;99.90;;;;;;5033663;28;25070;-64
2021/09/01 08:07:01;;;;;;;9.55;3.78;;;17.60;99.90;;;;;;5034764;28;24902;-64
2021/09/01 08:09:27;;;;;;;12.07;3.50;;;17.50;99.90;;;;;;5034109;28;25072;-64
2021/09/01 08:11:52;;;;;;;12.13;3.53;;;17.40;99.90;;;;;;5026911;28;25111;-65
2021/09/01 08:14:18;;;;;;;9.48;3.13;;;17.30;99.90;;;;;;5016834;28;25131;-65
2021/09/01 08:16:43;;;;;;;13.25;3.95;;;17.30;99.90;;;;;;5025987;28;25063;-64
2021/09/01 08:19:09;;;;;;;15.18;4.55;;;17.50;99.90;;;;;;5035115;28;25132;-64
2021/09/01 08:21:34;;;;;;;11.50;3.72;;;17.60;99.90;;;;;;5027408;28;25058;-64
2021/09/01 08:24:00;;;;;;;10.13;3.67;;;17.40;99.90;;;;;;5041671;28;25084;-64
2021/09/01 08:26:25;;;;;;;13.38;4.10;;;17.50;99.90;;;;;;5024312;28;25075;-64
2021/09/01 08:28:51;;;;;;;9.73;3.50;;;17.50;99.90;;;;;;5041654;28;25113;-65
2021/09/01 08:31:17;;;;;;;10.40;3.85;;;17.60;99.90;;;;;;5037549;28;25102;-65
2021/09/01 08:33:43;;;;;;;10.65;3.75;;;17.70;99.90;;;;;;5035652;28;25141;-65
2021/09/01 08:36:09;;;;;;;8.73;3.30;;;17.80;99.90;;;;;;5034809;28;25127;-65
2021/09/01 08:38:35;;;;;;;12.88;3.70;;;17.80;99.90;;;;;;5032530;28;25098;-65
2021/09/01 08:41:01;;;;;;;6.60;3.03;;;17.90;99.90;;;;;;5043034;28;25106;-65
2021/09/01 08:43:27;;;;;;;10.00;3.20;;;18.00;99.90;;;;;;5044923;28;25064;-64
2021/09/01 08:45:53;;;;;;;12.18;3.75;;;17.80;99.90;;;;;;5030848;28;25071;-65
2021/09/01 08:48:21;;;;;;;10.50;3.92;;;17.70;99.90;;;;;;5034708;28;25064;-65
2021/09/01 08:50:47;;;;;;;17.17;4.28;;;17.70;99.90;;;;;;5032654;28;25062;-64
2021/09/01 08:53:14;;;;;;;10.80;2.75;;;17.90;99.90;;;;;;5040001;28;25045;-66
2021/09/01 08:55:40;;;;;;;10.18;4.00;;;17.80;99.90;;;;;;5038592;28;25071;-64
2021/09/01 08:58:05;;;;;;;10.90;4.55;;;17.70;99.90;;;;;;5038701;28;25063;-64
2021/09/01 09:00:31;;;;;;;8.63;3.67;;;17.60;99.90;;;;;;5039781;28;25136;-65
2021/09/01 09:02:59;;;;;;;7.28;3.33;;;17.70;99.90;;;;;;5039308;28;25088;-65
2021/09/01 09:05:38;;;;;;;13.77;3.10;;;17.80;99.90;;;;;;5042205;28;25067;-65
2021/09/01 09:08:07;;;;;;;9.40;3.17;;;17.80;99.90;;;;;;5038901;28;25071;-65
2021/09/01 09:10:39;;;;;;;13.95;3.88;;;17.70;99.90;;;;;;5038284;28;25125;-64
2021/09/01 09:13:29;;;;;;;6.60;3.10;;;17.60;99.90;;;;;;5032395;28;25128;-65
2021/09/01 09:16:07;;;;;;;12.55;3.47;;;17.70;99.90;;;;;;5037891;28;25105;-64
2021/09/01 09:18:34;;;;;;;7.13;3.08;;;17.60;99.90;;;;;;5037259;28;25062;-65
2021/09/01 09:21:21;;;;;;;7.97;3.15;;;17.70;99.90;;;;;;5040835;28;25075;-64
2021/09/01 09:23:48;;;;;;;13.60;4.60;;;17.90;99.90;;;;;;5012875;28;25097;-65
2021/09/01 09:26:31;;;;;;;11.18;3.63;;;18.10;99.90;;;;;;5034502;28;25086;-64
2021/09/01 09:29:13;;;;;;;;;;;18.10;99.90;;;;;;5036037;28;25065;-64
2021/09/01 09:31:41;;;;;;;11.52;3.72;;;18.10;99.90;;;;;;5035926;28;25055;-65
2021/09/01 09:34:12;;;;;;;9.55;3.80;;;18.10;99.90;;;;;;5042985;28;25039;-64
2021/09/01 09:36:38;;;;;;;15.05;4.57;;;18.00;99.90;;;;;;5034997;28;25052;-64
2021/09/01 09:39:05;;;;;;;14.43;3.83;;;17.80;99.90;;;;;;5033235;28;25063;-64
2021/09/01 09:41:31;;;;;;;10.10;3.97;;;17.80;99.90;;;;;;5036087;28;25051;-64
2021/09/01 09:44:03;;;;;;;15.20;4.68;;;17.70;99.90;;;;;;5033169;28;25072;-65
2021/09/01 09:46:29;;;;;;;9.18;3.85;;;17.60;99.90;;;;;;5038989;28;25057;-65
2021/09/01 09:49:05;;;;;;;14.27;5.32;;;17.50;99.90;;;;;;5036009;28;25071;-64
2021/09/01 09:51:37;;;;;;;13.00;4.25;;;17.60;99.90;;;;;;5028977;28;25058;-65
2021/09/01 09:54:25;;;;;;;11.35;4.50;;;17.70;99.90;;;;;;5034197;28;25086;-64
2021/09/01 09:57:04;;;;;;;11.27;4.53;;;17.60;99.90;;;;;;5035929;28;25070;-64
2021/09/01 09:59:33;;;;;;;16.95;4.45;;;17.60;99.90;;;;;;5030584;28;25056;-64
2021/09/01 10:01:59;;;;;;;14.57;4.57;;;17.70;99.90;;;;;;5033801;28;25050;-62
2021/09/01 10:04:27;;;;;;;13.32;4.30;;;17.60;99.90;;;;;;5028414;28;25141;-62
2021/09/01 10:06:53;;;;;;;12.40;5.10;;;17.70;99.90;;;;;;5025544;28;25083;-65
2021/09/01 10:09:19;;;;;;;9.43;3.60;;;18.10;99.90;;;;;;5034361;23;25068;-64
2021/09/01 10:11:46;;;;;;;17.17;4.07;;;18.00;99.90;;;;;;4981543;28;25069;-62
2021/09/01 10:14:17;;;;;;;12.95;4.57;;;18.00;99.90;;;;;;4985327;28;25096;-62
2021/09/01 10:16:52;;;;;;;8.93;4.18;;;18.00;99.90;;;;;;4985006;28;25082;-63
2021/09/01 10:19:23;;;;;;;9.85;3.42;;;18.10;99.90;;;;;;4986866;28;25055;-62
2021/09/01 10:21:56;;;;;;;8.10;3.22;;;18.20;99.90;;;;;;4973879;28;25129;-63
2021/09/01 10:24:28;;;;;;;10.32;4.20;;;18.00;99.90;;;;;;4973336;28;25077;-61
2021/09/01 10:27:07;;;;;;;10.43;4.70;;;18.20;99.90;;;;;;4958219;28;25151;-62
2021/09/01 10:30:02;;;;;;;8.68;4.00;;;18.20;99.90;;;;;;4971218;28;25060;-62
2021/09/01 10:32:29;;;;;;;10.45;4.03;;;18.10;99.90;;;;;;4970132;28;25063;-64
2021/09/01 10:35:15;;;;;;;5.38;3.75;;;18.40;99.90;;;;;;4964951;28;25152;-63
2021/09/01 10:37:50;;;;;;;10.13;3.67;;;18.40;99.90;;;;;;4968897;28;25106;-64
2021/09/01 10:40:27;;;;;;;12.93;4.22;;;18.20;99.90;;;;;;4969375;28;25109;-63
2021/09/01 10:43:00;;;;;;;10.25;3.83;;;18.10;99.90;;;;;;4968622;28;25055;-64
2021/09/01 10:45:32;;;;;;;12.45;4.07;;;18.00;99.90;;;;;;4969669;28;25109;-64
2021/09/01 10:48:03;;;;;;;10.35;4.00;;;18.00;99.90;;;;;;4970518;28;25049;-61
2021/09/01 10:50:37;;;;;;;14.00;3.90;;;18.00;99.90;;;;;;4967624;28;25054;-64
2021/09/01 10:53:24;;;;;;;11.88;3.80;;;17.80;99.90;;;;;;4970306;28;25049;-64
2021/09/01 10:55:58;;;;;;;12.85;3.58;;;17.90;99.90;;;;;;4976640;28;25095;-65
2021/09/01 10:58:29;;;;;;;13.98;3.20;;;17.90;99.90;;;;;;4971565;28;25065;-64
2021/09/01 11:00:57;;;;;;;8.65;3.45;;;18.10;99.90;;;;;;4969439;28;25072;-63
2021/09/01 11:03:27;;;;;;;9.48;3.38;;;18.10;99.90;;;;;;4960791;28;25090;-64
2021/09/01 11:05:53;;;;;;;6.38;2.92;;;18.20;99.90;;;;;;4968890;28;25102;-64
2021/09/01 11:08:18;;;;;;;8.40;3.20;;;18.30;99.90;;;;;;4964746;28;25101;-63
2021/09/01 11:10:57;;;;;;;9.65;3.80;;;18.40;99.90;;;;;;4957396;28;25100;-63
2021/09/01 11:13:38;;;;;;;14.77;3.80;;;18.30;99.90;;;;;;4958982;28;25079;-62
2021/09/01 11:16:19;;;;;;;11.10;3.97;;;18.30;99.90;;;;;;4964045;28;25140;-63
2021/09/01 11:19:09;;;;;;;9.70;3.70;;;18.30;99.90;;;;;;4963469;28;25097;-63
2021/09/01 11:21:41;;;;;;;9.82;3.30;;;18.50;99.90;;;;;;4959346;28;25155;-63
2021/09/01 11:24:09;;;;;;;11.75;3.80;;;18.50;99.90;;;;;;4953383;28;25071;-62
2021/09/01 11:26:34;;;;;;;9.32;3.72;;;18.70;99.90;;;;;;4960625;28;25125;-62
2021/09/01 11:29:04;;;;;;;9.45;3.35;;;18.90;99.90;;;;;;4953471;28;25091;-62
2021/09/01 11:31:30;;;;;;;9.95;4.25;;;18.80;99.90;;;;;;4952587;28;25060;-64
2021/09/01 11:33:57;;;;;;;16.20;4.65;;;18.70;99.90;;;;;;4966138;28;25059;-63
2021/09/01 11:36:27;;;;;;;10.27;3.20;;;18.70;99.90;;;;;;4968291;28;25154;-62
2021/09/01 11:38:58;;;;;;;6.43;3.13;;;18.60;99.90;;;;;;4962574;28;25053;-64
2021/09/01 11:41:26;;;;;;;9.52;2.92;;;18.70;99.90;;;;;;4962185;28;25156;-63
2021/09/01 11:44:03;;;;;;;8.52;3.55;;;18.80;99.90;;;;;;4962748;28;25086;-63
2021/09/01 11:46:34;;;;;;;12.55;3.35;;;18.80;99.90;;;;;;4963911;28;25148;-63
2021/09/01 11:49:04;;;;;;;6.40;2.90;;;18.80;99.90;;;;;;4967132;28;25135;-63
2021/09/01 11:51:29;;;;;;;8.40;3.72;;;18.80;99.90;;;;;;4961676;28;25126;-63
2021/09/01 11:53:57;;;;;;;9.85;3.30;;;18.50;99.90;;;;;;4961028;28;25139;-63
2021/09/01 11:56:24;;;;;;;9.18;3.97;;;18.40;99.90;;;;;;4963287;28;25081;-63
2021/09/01 11:59:16;;;;;;;12.57;3.30;;;18.30;99.90;;;;;;4967360;28;25048;-64
2021/09/01 12:01:48;;;;;;;6.15;3.40;;;18.40;99.90;;;;;;4968102;28;25055;-63
2021/09/01 12:04:18;;;;;;;8.43;3.45;;;18.40;99.90;;;;;;4963981;28;25108;-63
2021/09/01 12:06:45;;;;;;;11.20;3.45;;;18.20;99.90;;;;;;4961645;28;25070;-62
2021/09/01 12:09:13;;;;;;;9.80;3.15;;;18.30;99.90;;;;;;4965412;28;25064;-62
2021/09/01 12:11:53;;;;;;;11.40;2.95;;;18.30;99.90;;;;;;4964952;28;25052;-63
2021/09/01 12:14:23;;;;;;;12.68;3.50;;;18.50;99.90;;;;;;4963254;28;25105;-64
2021/09/01 12:16:49;;;;;;;5.60;2.90;;;18.50;99.90;;;;;;4961473;28;25062;-64
2021/09/01 12:19:15;;;;;;;7.30;3.08;;;18.50;99.90;;;;;;4961961;28;25134;-63
2021/09/01 12:21:48;;;;;;;10.55;3.10;;;18.50;99.90;;;;;;4962821;28;25415;-63
2021/09/01 12:24:19;;;;;;;9.35;3.10;;;18.70;99.90;;;;;;4969079;28;25100;-64
2021/09/01 12:26:54;;;;;;;7.50;3.53;;;18.60;99.90;;;;;;4960005;28;25155;-63
2021/09/01 12:29:35;;;;;;;11.48;3.58;;;18.80;99.90;;;;;;4979476;28;25065;-63
2021/09/01 12:32:02;;;;;;;16.40;3.85;;;18.90;99.90;;;;;;4962725;28;25150;-62
2021/09/01 12:34:34;;;;;;;19.75;5.25;;;18.90;99.90;;;;;;4960746;28;25042;-63
2021/09/01 12:37:06;;;;;;;10.70;4.65;;;18.70;99.90;;;;;;4957309;28;25052;-63
2021/09/01 12:39:52;;;;;;;16.13;5.00;;;18.70;99.90;;;;;;4954582;28;25140;-62
2021/09/01 12:42:28;;;;;;;11.43;4.38;;;18.90;99.90;;;;;;4956292;28;25078;-63